CheckWX is a tool to help pilots better visualize weather data.  It is not intended as a substitute for an official pre-flight weather briefing.

07:22:54 UTC

KQEW METAR
Sangju Rws
Sangju Rws, South Korea
Current

13 mins ago

KQEW 210710Z AUTO 26006G21KT 9999 CLR 24/02 A2964 RMK A02 TSNO
Observed
May-21 @ 07:10 UTC
Wind
  • 260° at 6 KTS
  • Gusting to 21 KTS
Visibility
10,000+ meters
Flight Rules
VFR
Cloud Levels
  • Clear skies
Temperature
24°C / 75°F
Dewpoint
C / 36°F
Humidity
24%
Altimeter
29.64" Hg
Pressure
1003.72 hPa
Previous

23 mins ago

KQEW 210700Z AUTO 24005G20KT 9999 CLR 24/02 A2964 RMK A02 TSNO
Observed
May-21 @ 07:00 UTC
Wind
  • 240° at 5 KTS
  • Gusting to 20 KTS
Visibility
10,000+ meters
Flight Rules
VFR
Cloud Levels
  • Clear skies
Temperature
24°C / 75°F
Dewpoint
C / 36°F
Humidity
24%
Altimeter
29.64" Hg
Pressure
1003.72 hPa
Previous

43 mins ago

KQEW 210640Z AUTO 25007G18KT 9999 FEW140 24/02 A2964 RMK A02 TSNO
Observed
May-21 @ 06:40 UTC
Wind
  • 250° at 7 KTS
  • Gusting to 18 KTS
Visibility
10,000+ meters
Flight Rules
VFR
Cloud Levels
  • Few at 14,000' AGL
Temperature
24°C / 75°F
Dewpoint
C / 36°F
Humidity
24%
Altimeter
29.64" Hg
Pressure
1003.72 hPa